sensor_id;sensor_type;location;lat;lon;timestamp;temperature;humidity
9752;DHT22;4915;51.226;5.966;2022-08-21T00:00:45;15.30;99.90
9752;DHT22;4915;51.226;5.966;2022-08-21T00:03:12;15.30;99.90
9752;DHT22;4915;51.226;5.966;2022-08-21T00:05:45;15.30;99.90
9752;DHT22;4915;51.226;5.966;2022-08-21T00:08:13;15.40;99.90
9752;DHT22;4915;51.226;5.966;2022-08-21T00:10:41;15.50;99.90
9752;DHT22;4915;51.226;5.966;2022-08-21T00:13:08;15.50;99.90
9752;DHT22;4915;51.226;5.966;2022-08-21T00:15:37;15.60;99.90
9752;DHT22;4915;51.226;5.966;2022-08-21T00:18:06;15.60;99.90
9752;DHT22;4915;51.226;5.966;2022-08-21T00:20:34;15.60;99.90
9752;DHT22;4915;51.226;5.966;2022-08-21T00:23:03;15.60;99.90
9752;DHT22;4915;51.226;5.966;2022-08-21T00:25:31;15.70;99.90
9752;DHT22;4915;51.226;5.966;2022-08-21T00:27:58;15.70;99.90
9752;DHT22;4915;51.226;5.966;2022-08-21T00:30:25;15.70;99.90
9752;DHT22;4915;51.226;5.966;2022-08-21T00:32:54;15.70;99.90
9752;DHT22;4915;51.226;5.966;2022-08-21T00:35:25;15.60;99.90
9752;DHT22;4915;51.226;5.966;2022-08-21T00:37:52;15.50;99.90
9752;DHT22;4915;51.226;5.966;2022-08-21T00:40:24;15.50;99.90
9752;DHT22;4915;51.226;5.966;2022-08-21T00:42:52;15.40;99.90
9752;DHT22;4915;51.226;5.966;2022-08-21T00:45:19;15.30;99.90
9752;DHT22;4915;51.226;5.966;2022-08-21T00:47:47;15.20;99.90
9752;DHT22;4915;51.226;5.966;2022-08-21T00:50:14;15.20;99.90
9752;DHT22;4915;51.226;5.966;2022-08-21T00:52:41;15.30;99.90
9752;DHT22;4915;51.226;5.966;2022-08-21T00:55:10;15.20;99.90
9752;DHT22;4915;51.226;5.966;2022-08-21T00:57:42;15.20;99.90
9752;DHT22;4915;51.226;5.966;2022-08-21T01:00:14;15.10;99.90
9752;DHT22;4915;51.226;5.966;2022-08-21T01:02:42;15.00;99.90
9752;DHT22;4915;51.226;5.966;2022-08-21T01:05:09;15.10;99.90
9752;DHT22;4915;51.226;5.966;2022-08-21T01:07:37;15.10;99.90
9752;DHT22;4915;51.226;5.966;2022-08-21T01:10:05;15.20;99.90
9752;DHT22;4915;51.226;5.966;2022-08-21T01:12:33;15.30;99.90
9752;DHT22;4915;51.226;5.966;2022-08-21T01:15:05;15.20;99.90
9752;DHT22;4915;51.226;5.966;2022-08-21T01:17:33;15.20;99.90
9752;DHT22;4915;51.226;5.966;2022-08-21T01:20:03;15.20;99.90
9752;DHT22;4915;51.226;5.966;2022-08-21T01:22:32;15.20;99.90
9752;DHT22;4915;51.226;5.966;2022-08-21T01:24:59;15.10;99.90
9752;DHT22;4915;51.226;5.966;2022-08-21T01:27:26;15.10;99.90
9752;DHT22;4915;51.226;5.966;2022-08-21T01:29:57;15.00;99.90
9752;DHT22;4915;51.226;5.966;2022-08-21T01:32:27;15.00;99.90
9752;DHT22;4915;51.226;5.966;2022-08-21T01:34:54;15.00;99.90
9752;DHT22;4915;51.226;5.966;2022-08-21T01:37:21;15.00;99.90
9752;DHT22;4915;51.226;5.966;2022-08-21T01:39:50;15.00;99.90
9752;DHT22;4915;51.226;5.966;2022-08-21T01:42:17;14.90;99.90
9752;DHT22;4915;51.226;5.966;2022-08-21T01:44:44;15.00;99.90
9752;DHT22;4915;51.226;5.966;2022-08-21T01:47:13;15.00;99.90
9752;DHT22;4915;51.226;5.966;2022-08-21T01:49:42;14.90;99.90
9752;DHT22;4915;51.226;5.966;2022-08-21T01:52:09;14.90;99.90
9752;DHT22;4915;51.226;5.966;2022-08-21T01:54:37;15.00;99.90
9752;DHT22;4915;51.226;5.966;2022-08-21T01:57:06;15.00;99.90
9752;DHT22;4915;51.226;5.966;2022-08-21T01:59:34;14.90;99.90
9752;DHT22;4915;51.226;5.966;2022-08-21T02:02:02;14.70;99.90
9752;DHT22;4915;51.226;5.966;2022-08-21T02:04:30;14.40;99.90
9752;DHT22;4915;51.226;5.966;2022-08-21T02:06:57;14.30;99.90
9752;DHT22;4915;51.226;5.966;2022-08-21T02:09:24;14.40;99.90
9752;DHT22;4915;51.226;5.966;2022-08-21T02:11:51;14.40;99.90
9752;DHT22;4915;51.226;5.966;2022-08-21T02:14:20;14.40;99.90
9752;DHT22;4915;51.226;5.966;2022-08-21T02:16:47;14.40;99.90
9752;DHT22;4915;51.226;5.966;2022-08-21T02:19:16;14.50;99.90
9752;DHT22;4915;51.226;5.966;2022-08-21T02:21:43;14.50;99.90
9752;DHT22;4915;51.226;5.966;2022-08-21T02:24:11;14.50;99.90
9752;DHT22;4915;51.226;5.966;2022-08-21T02:26:39;14.50;99.90
9752;DHT22;4915;51.226;5.966;2022-08-21T02:29:06;14.60;99.90
9752;DHT22;4915;51.226;5.966;2022-08-21T02:31:35;14.60;99.90
9752;DHT22;4915;51.226;5.966;2022-08-21T02:34:02;14.60;99.90
9752;DHT22;4915;51.226;5.966;2022-08-21T02:36:30;14.60;99.90
9752;DHT22;4915;51.226;5.966;2022-08-21T02:38:57;14.70;99.90
9752;DHT22;4915;51.226;5.966;2022-08-21T02:41:24;14.70;99.90
9752;DHT22;4915;51.226;5.966;2022-08-21T02:43:51;14.70;99.90
9752;DHT22;4915;51.226;5.966;2022-08-21T02:46:20;14.70;99.90
9752;DHT22;4915;51.226;5.966;2022-08-21T02:48:49;14.70;99.90
9752;DHT22;4915;51.226;5.966;2022-08-21T02:51:18;14.80;99.90
9752;DHT22;4915;51.226;5.966;2022-08-21T02:53:48;14.80;99.90
9752;DHT22;4915;51.226;5.966;2022-08-21T02:56:17;14.70;99.90
9752;DHT22;4915;51.226;5.966;2022-08-21T02:58:46;14.70;99.90
9752;DHT22;4915;51.226;5.966;2022-08-21T03:01:15;14.70;99.90
9752;DHT22;4915;51.226;5.966;2022-08-21T03:03:43;14.60;99.90
9752;DHT22;4915;51.226;5.966;2022-08-21T03:06:14;14.60;99.90
9752;DHT22;4915;51.226;5.966;2022-08-21T03:08:42;14.60;99.90
9752;DHT22;4915;51.226;5.966;2022-08-21T03:11:11;14.50;99.90
9752;DHT22;4915;51.226;5.966;2022-08-21T03:13:39;14.50;99.90
9752;DHT22;4915;51.226;5.966;2022-08-21T03:16:06;14.30;99.90
9752;DHT22;4915;51.226;5.966;2022-08-21T03:18:34;14.30;99.90
9752;DHT22;4915;51.226;5.966;2022-08-21T03:21:01;14.20;99.90
9752;DHT22;4915;51.226;5.966;2022-08-21T03:23:30;14.20;99.90
9752;DHT22;4915;51.226;5.966;2022-08-21T03:25:57;14.10;99.90
9752;DHT22;4915;51.226;5.966;2022-08-21T03:28:25;14.10;99.90
9752;DHT22;4915;51.226;5.966;2022-08-21T03:30:52;14.10;99.90
9752;DHT22;4915;51.226;5.966;2022-08-21T03:33:20;14.10;99.90
9752;DHT22;4915;51.226;5.966;2022-08-21T03:35:53;14.10;99.90
9752;DHT22;4915;51.226;5.966;2022-08-21T03:38:21;14.00;99.90
9752;DHT22;4915;51.226;5.966;2022-08-21T03:40:49;14.00;99.90
9752;DHT22;4915;51.226;5.966;2022-08-21T03:43:16;14.00;99.90
9752;DHT22;4915;51.226;5.966;2022-08-21T03:45:44;14.00;99.90
9752;DHT22;4915;51.226;5.966;2022-08-21T03:48:11;14.20;99.90
9752;DHT22;4915;51.226;5.966;2022-08-21T03:50:40;14.30;99.90
9752;DHT22;4915;51.226;5.966;2022-08-21T03:53:08;14.30;99.90
9752;DHT22;4915;51.226;5.966;2022-08-21T03:55:35;14.30;99.90
9752;DHT22;4915;51.226;5.966;2022-08-21T03:58:03;14.10;99.90
9752;DHT22;4915;51.226;5.966;2022-08-21T04:00:31;14.10;99.90
9752;DHT22;4915;51.226;5.966;2022-08-21T04:02:59;14.30;99.90
9752;DHT22;4915;51.226;5.966;2022-08-21T04:05:26;14.40;99.90
9752;DHT22;4915;51.226;5.966;2022-08-21T04:07:57;14.40;99.90
9752;DHT22;4915;51.226;5.966;2022-08-21T04:10:25;14.50;99.90
9752;DHT22;4915;51.226;5.966;2022-08-21T04:12:53;14.40;99.90
9752;DHT22;4915;51.226;5.966;2022-08-21T04:15:24;14.40;99.90
9752;DHT22;4915;51.226;5.966;2022-08-21T04:17:52;14.40;99.90
9752;DHT22;4915;51.226;5.966;2022-08-21T04:20:20;14.20;99.90
9752;DHT22;4915;51.226;5.966;2022-08-21T04:22:48;14.20;99.90
9752;DHT22;4915;51.226;5.966;2022-08-21T04:25:16;14.10;99.90
9752;DHT22;4915;51.226;5.966;2022-08-21T04:27:44;14.00;99.90
9752;DHT22;4915;51.226;5.966;2022-08-21T04:30:13;13.90;99.90
9752;DHT22;4915;51.226;5.966;2022-08-21T04:32:43;13.90;99.90
9752;DHT22;4915;51.226;5.966;2022-08-21T04:35:12;13.70;99.90
9752;DHT22;4915;51.226;5.966;2022-08-21T04:37:39;13.60;99.90
9752;DHT22;4915;51.226;5.966;2022-08-21T04:40:08;13.60;99.90
9752;DHT22;4915;51.226;5.966;2022-08-21T04:42:42;13.70;99.90
9752;DHT22;4915;51.226;5.966;2022-08-21T04:45:14;13.50;99.90
9752;DHT22;4915;51.226;5.966;2022-08-21T04:47:43;13.50;99.90
9752;DHT22;4915;51.226;5.966;2022-08-21T04:50:10;13.60;99.90
9752;DHT22;4915;51.226;5.966;2022-08-21T04:52:37;13.70;99.90
9752;DHT22;4915;51.226;5.966;2022-08-21T04:55:05;13.80;99.90
9752;DHT22;4915;51.226;5.966;2022-08-21T04:57:33;13.90;99.90
9752;DHT22;4915;51.226;5.966;2022-08-21T05:00:02;13.90;99.90
9752;DHT22;4915;51.226;5.966;2022-08-21T05:02:30;14.00;99.90
9752;DHT22;4915;51.226;5.966;2022-08-21T05:05:00;14.00;99.90
9752;DHT22;4915;51.226;5.966;2022-08-21T05:07:28;14.00;99.90
9752;DHT22;4915;51.226;5.966;2022-08-21T05:09:58;14.00;99.90
9752;DHT22;4915;51.226;5.966;2022-08-21T05:12:25;14.00;99.90
9752;DHT22;4915;51.226;5.966;2022-08-21T05:14:52;13.90;99.90
9752;DHT22;4915;51.226;5.966;2022-08-21T05:17:20;14.00;99.90
9752;DHT22;4915;51.226;5.966;2022-08-21T05:19:47;14.00;99.90
9752;DHT22;4915;51.226;5.966;2022-08-21T05:22:20;14.10;99.90
9752;DHT22;4915;51.226;5.966;2022-08-21T05:24:48;14.20;99.90
9752;DHT22;4915;51.226;5.966;2022-08-21T05:27:15;14.20;99.90
9752;DHT22;4915;51.226;5.966;2022-08-21T05:29:42;14.30;99.90
9752;DHT22;4915;51.226;5.966;2022-08-21T05:32:11;14.60;99.90
9752;DHT22;4915;51.226;5.966;2022-08-21T05:34:38;14.80;99.90
9752;DHT22;4915;51.226;5.966;2022-08-21T05:37:05;14.90;99.90
9752;DHT22;4915;51.226;5.966;2022-08-21T05:39:34;15.10;99.90
9752;DHT22;4915;51.226;5.966;2022-08-21T05:42:01;15.20;99.90
9752;DHT22;4915;51.226;5.966;2022-08-21T05:44:28;15.30;99.90
9752;DHT22;4915;51.226;5.966;2022-08-21T05:47:01;15.40;99.90
9752;DHT22;4915;51.226;5.966;2022-08-21T05:49:28;15.50;99.90
9752;DHT22;4915;51.226;5.966;2022-08-21T05:51:55;15.80;99.90
9752;DHT22;4915;51.226;5.966;2022-08-21T05:54:22;16.40;99.90
9752;DHT22;4915;51.226;5.966;2022-08-21T05:56:50;16.90;99.90
9752;DHT22;4915;51.226;5.966;2022-08-21T05:59:17;17.20;99.90
9752;DHT22;4915;51.226;5.966;2022-08-21T06:01:45;17.60;99.90
9752;DHT22;4915;51.226;5.966;2022-08-21T06:04:12;17.90;99.90
9752;DHT22;4915;51.226;5.966;2022-08-21T06:06:39;17.90;99.90
9752;DHT22;4915;51.226;5.966;2022-08-21T06:09:06;18.20;99.90
9752;DHT22;4915;51.226;5.966;2022-08-21T06:11:34;18.00;99.90
9752;DHT22;4915;51.226;5.966;2022-08-21T06:14:02;18.20;99.90
9752;DHT22;4915;51.226;5.966;2022-08-21T06:16:32;18.70;99.90
9752;DHT22;4915;51.226;5.966;2022-08-21T06:18:59;18.50;99.90
9752;DHT22;4915;51.226;5.966;2022-08-21T06:21:26;18.90;99.90
9752;DHT22;4915;51.226;5.966;2022-08-21T06:23:53;18.60;99.90
9752;DHT22;4915;51.226;5.966;2022-08-21T06:26:21;18.80;99.90
9752;DHT22;4915;51.226;5.966;2022-08-21T06:28:50;19.00;99.90
9752;DHT22;4915;51.226;5.966;2022-08-21T06:31:21;19.40;99.90
9752;DHT22;4915;51.226;5.966;2022-08-21T06:33:49;19.60;99.90
9752;DHT22;4915;51.226;5.966;2022-08-21T06:36:16;19.90;99.90
9752;DHT22;4915;51.226;5.966;2022-08-21T06:38:43;19.70;99.90
9752;DHT22;4915;51.226;5.966;2022-08-21T06:41:11;19.90;99.90
9752;DHT22;4915;51.226;5.966;2022-08-21T06:43:38;19.50;99.90
9752;DHT22;4915;51.226;5.966;2022-08-21T06:46:06;20.00;99.90
9752;DHT22;4915;51.226;5.966;2022-08-21T06:48:35;20.00;99.90
9752;DHT22;4915;51.226;5.966;2022-08-21T06:51:02;20.30;99.90
9752;DHT22;4915;51.226;5.966;2022-08-21T06:53:29;20.10;99.90
9752;DHT22;4915;51.226;5.966;2022-08-21T06:55:56;20.30;99.90
9752;DHT22;4915;51.226;5.966;2022-08-21T06:58:23;20.40;99.90
9752;DHT22;4915;51.226;5.966;2022-08-21T07:00:51;20.50;99.90
9752;DHT22;4915;51.226;5.966;2022-08-21T07:03:21;20.90;99.90
9752;DHT22;4915;51.226;5.966;2022-08-21T07:05:51;20.90;99.90
9752;DHT22;4915;51.226;5.966;2022-08-21T07:08:18;20.80;99.90
9752;DHT22;4915;51.226;5.966;2022-08-21T07:10:46;21.10;99.90
9752;DHT22;4915;51.226;5.966;2022-08-21T07:13:13;21.10;99.90
9752;DHT22;4915;51.226;5.966;2022-08-21T07:15:40;21.00;99.90
9752;DHT22;4915;51.226;5.966;2022-08-21T07:18:07;21.10;99.90
9752;DHT22;4915;51.226;5.966;2022-08-21T07:20:34;21.30;99.90
9752;DHT22;4915;51.226;5.966;2022-08-21T07:23:06;21.60;99.90
9752;DHT22;4915;51.226;5.966;2022-08-21T07:25:34;22.10;99.90
9752;DHT22;4915;51.226;5.966;2022-08-21T07:28:01;21.60;99.90
9752;DHT22;4915;51.226;5.966;2022-08-21T07:30:28;21.60;99.90
9752;DHT22;4915;51.226;5.966;2022-08-21T07:32:55;21.70;99.90
9752;DHT22;4915;51.226;5.966;2022-08-21T07:35:22;21.50;99.90
9752;DHT22;4915;51.226;5.966;2022-08-21T07:37:50;21.00;99.90
9752;DHT22;4915;51.226;5.966;2022-08-21T07:40:19;21.30;99.90
9752;DHT22;4915;51.226;5.966;2022-08-21T07:42:47;21.60;99.90
9752;DHT22;4915;51.226;5.966;2022-08-21T07:45:18;22.10;99.90
9752;DHT22;4915;51.226;5.966;2022-08-21T07:47:46;22.60;99.90
9752;DHT22;4915;51.226;5.966;2022-08-21T07:50:14;22.60;99.90
9752;DHT22;4915;51.226;5.966;2022-08-21T07:52:42;22.60;99.90
9752;DHT22;4915;51.226;5.966;2022-08-21T07:55:12;22.50;99.90
9752;DHT22;4915;51.226;5.966;2022-08-21T07:57:40;22.80;99.90
9752;DHT22;4915;51.226;5.966;2022-08-21T08:00:10;22.80;99.90
9752;DHT22;4915;51.226;5.966;2022-08-21T08:02:38;22.20;99.90
9752;DHT22;4915;51.226;5.966;2022-08-21T08:05:08;22.40;99.90
9752;DHT22;4915;51.226;5.966;2022-08-21T08:07:35;22.60;99.90
9752;DHT22;4915;51.226;5.966;2022-08-21T08:10:03;22.40;99.90
9752;DHT22;4915;51.226;5.966;2022-08-21T08:12:32;22.40;99.90
9752;DHT22;4915;51.226;5.966;2022-08-21T08:15:01;21.40;99.90
9752;DHT22;4915;51.226;5.966;2022-08-21T08:17:29;21.10;99.90
9752;DHT22;4915;51.226;5.966;2022-08-21T08:19:58;21.50;99.90
9752;DHT22;4915;51.226;5.966;2022-08-21T08:22:26;21.70;99.90
9752;DHT22;4915;51.226;5.966;2022-08-21T08:24:54;22.20;99.90
9752;DHT22;4915;51.226;5.966;2022-08-21T08:27:22;22.70;99.90
9752;DHT22;4915;51.226;5.966;2022-08-21T08:29:49;22.90;99.90
9752;DHT22;4915;51.226;5.966;2022-08-21T08:32:18;22.50;99.90
9752;DHT22;4915;51.226;5.966;2022-08-21T08:34:46;22.30;99.90
9752;DHT22;4915;51.226;5.966;2022-08-21T08:37:14;22.90;99.90
9752;DHT22;4915;51.226;5.966;2022-08-21T08:39:42;23.80;57.70
9752;DHT22;4915;51.226;5.966;2022-08-21T08:42:12;23.90;43.30
9752;DHT22;4915;51.226;5.966;2022-08-21T08:44:40;24.10;13.90
9752;DHT22;4915;51.226;5.966;2022-08-21T08:47:09;23.40;1.00
9752;DHT22;4915;51.226;5.966;2022-08-21T08:49:44;22.90;5.50
9752;DHT22;4915;51.226;5.966;2022-08-21T08:52:20;23.40;14.30
9752;DHT22;4915;51.226;5.966;2022-08-21T08:54:51;24.00;1.30
9752;DHT22;4915;51.226;5.966;2022-08-21T08:57:23;23.90;1.00
9752;DHT22;4915;51.226;5.966;2022-08-21T08:59:52;23.10;1.00
9752;DHT22;4915;51.226;5.966;2022-08-21T09:02:21;22.90;1.00
9752;DHT22;4915;51.226;5.966;2022-08-21T09:04:51;22.70;1.00
9752;DHT22;4915;51.226;5.966;2022-08-21T09:07:26;23.40;1.00
9752;DHT22;4915;51.226;5.966;2022-08-21T09:10:04;23.50;1.00
9752;DHT22;4915;51.226;5.966;2022-08-21T09:12:44;22.90;1.00
9752;DHT22;4915;51.226;5.966;2022-08-21T09:15:20;23.10;1.00
9752;DHT22;4915;51.226;5.966;2022-08-21T09:18:09;23.30;1.00
9752;DHT22;4915;51.226;5.966;2022-08-21T09:20:47;23.60;1.00
9752;DHT22;4915;51.226;5.966;2022-08-21T09:23:24;24.00;1.00
9752;DHT22;4915;51.226;5.966;2022-08-21T09:26:00;24.30;1.00
9752;DHT22;4915;51.226;5.966;2022-08-21T09:28:31;24.10;1.00
9752;DHT22;4915;51.226;5.966;2022-08-21T09:30:59;24.50;1.00
9752;DHT22;4915;51.226;5.966;2022-08-21T09:33:28;24.20;1.00
9752;DHT22;4915;51.226;5.966;2022-08-21T09:35:57;24.50;1.00
9752;DHT22;4915;51.226;5.966;2022-08-21T09:38:28;24.50;1.00
9752;DHT22;4915;51.226;5.966;2022-08-21T09:41:00;23.90;1.00
9752;DHT22;4915;51.226;5.966;2022-08-21T09:43:28;23.80;1.00
9752;DHT22;4915;51.226;5.966;2022-08-21T09:46:05;23.90;1.00
9752;DHT22;4915;51.226;5.966;2022-08-21T09:48:43;24.40;1.00
9752;DHT22;4915;51.226;5.966;2022-08-21T09:51:15;24.50;1.00
9752;DHT22;4915;51.226;5.966;2022-08-21T09:53:45;25.00;1.00
9752;DHT22;4915;51.226;5.966;2022-08-21T09:56:19;25.20;1.00
9752;DHT22;4915;51.226;5.966;2022-08-21T09:59:18;25.40;1.00
9752;DHT22;4915;51.226;5.966;2022-08-21T10:01:47;25.60;1.00
9752;DHT22;4915;51.226;5.966;2022-08-21T10:04:15;25.10;1.00
9752;DHT22;4915;51.226;5.966;2022-08-21T10:06:47;25.60;1.00
9752;DHT22;4915;51.226;5.966;2022-08-21T10:09:17;25.40;1.00
9752;DHT22;4915;51.226;5.966;2022-08-21T10:11:50;25.10;1.00
9752;DHT22;4915;51.226;5.966;2022-08-21T10:14:29;25.40;1.00
9752;DHT22;4915;51.226;5.966;2022-08-21T10:17:05;25.10;1.00
9752;DHT22;4915;51.226;5.966;2022-08-21T10:19:40;26.00;1.00
9752;DHT22;4915;51.226;5.966;2022-08-21T10:22:19;26.50;1.00
9752;DHT22;4915;51.226;5.966;2022-08-21T10:24:56;26.40;1.00
9752;DHT22;4915;51.226;5.966;2022-08-21T10:27:33;26.50;1.00
9752;DHT22;4915;51.226;5.966;2022-08-21T10:30:04;26.20;1.00
9752;DHT22;4915;51.226;5.966;2022-08-21T10:32:49;26.70;1.00
9752;DHT22;4915;51.226;5.966;2022-08-21T10:35:21;27.50;1.00
9752;DHT22;4915;51.226;5.966;2022-08-21T10:38:08;27.40;1.00
9752;DHT22;4915;51.226;5.966;2022-08-21T10:40:42;27.00;1.00
9752;DHT22;4915;51.226;5.966;2022-08-21T10:43:18;26.30;1.00
9752;DHT22;4915;51.226;5.966;2022-08-21T10:45:54;27.00;1.00
9752;DHT22;4915;51.226;5.966;2022-08-21T10:48:28;27.00;1.00
9752;DHT22;4915;51.226;5.966;2022-08-21T10:51:03;26.40;1.00
9752;DHT22;4915;51.226;5.966;2022-08-21T10:53:41;26.70;1.00
9752;DHT22;4915;51.226;5.966;2022-08-21T10:56:16;27.30;1.00
9752;DHT22;4915;51.226;5.966;2022-08-21T10:58:50;27.60;1.00
9752;DHT22;4915;51.226;5.966;2022-08-21T11:01:24;26.80;1.00
9752;DHT22;4915;51.226;5.966;2022-08-21T11:03:59;25.50;1.00
9752;DHT22;4915;51.226;5.966;2022-08-21T11:06:31;25.40;1.00
9752;DHT22;4915;51.226;5.966;2022-08-21T11:09:11;25.80;1.00
9752;DHT22;4915;51.226;5.966;2022-08-21T11:11:44;26.30;1.00
9752;DHT22;4915;51.226;5.966;2022-08-21T11:14:20;26.60;1.00
9752;DHT22;4915;51.226;5.966;2022-08-21T11:16:53;25.80;1.00
9752;DHT22;4915;51.226;5.966;2022-08-21T11:19:25;25.20;1.00
9752;DHT22;4915;51.226;5.966;2022-08-21T11:22:00;25.70;1.00
9752;DHT22;4915;51.226;5.966;2022-08-21T11:24:37;25.40;1.00
9752;DHT22;4915;51.226;5.966;2022-08-21T11:27:13;26.00;1.00
9752;DHT22;4915;51.226;5.966;2022-08-21T11:29:44;26.80;1.00
9752;DHT22;4915;51.226;5.966;2022-08-21T11:32:54;26.30;1.00
9752;DHT22;4915;51.226;5.966;2022-08-21T11:35:32;26.50;1.00
9752;DHT22;4915;51.226;5.966;2022-08-21T11:38:08;26.30;1.00
9752;DHT22;4915;51.226;5.966;2022-08-21T11:40:53;26.40;1.00
9752;DHT22;4915;51.226;5.966;2022-08-21T11:43:25;25.30;1.00
9752;DHT22;4915;51.226;5.966;2022-08-21T11:46:03;25.90;1.00
9752;DHT22;4915;51.226;5.966;2022-08-21T11:48:44;26.40;1.00
9752;DHT22;4915;51.226;5.966;2022-08-21T11:51:17;26.60;1.00
9752;DHT22;4915;51.226;5.966;2022-08-21T11:53:48;27.10;1.00
9752;DHT22;4915;51.226;5.966;2022-08-21T11:56:23;26.30;1.00
9752;DHT22;4915;51.226;5.966;2022-08-21T11:58:53;27.00;1.00
9752;DHT22;4915;51.226;5.966;2022-08-21T12:01:24;27.70;1.00
9752;DHT22;4915;51.226;5.966;2022-08-21T12:03:55;28.00;1.00
9752;DHT22;4915;51.226;5.966;2022-08-21T12:06:30;27.70;1.00
9752;DHT22;4915;51.226;5.966;2022-08-21T12:09:02;27.30;1.00
9752;DHT22;4915;51.226;5.966;2022-08-21T12:11:31;26.50;1.00
9752;DHT22;4915;51.226;5.966;2022-08-21T12:14:00;27.10;1.00
9752;DHT22;4915;51.226;5.966;2022-08-21T12:16:34;27.60;1.00
9752;DHT22;4915;51.226;5.966;2022-08-21T12:19:06;27.70;1.00
9752;DHT22;4915;51.226;5.966;2022-08-21T12:21:48;27.60;1.00
9752;DHT22;4915;51.226;5.966;2022-08-21T12:24:19;26.20;1.00
9752;DHT22;4915;51.226;5.966;2022-08-21T12:26:52;26.30;1.00
9752;DHT22;4915;51.226;5.966;2022-08-21T12:29:25;26.30;1.00
9752;DHT22;4915;51.226;5.966;2022-08-21T12:31:56;26.20;1.00
9752;DHT22;4915;51.226;5.966;2022-08-21T12:34:31;26.70;1.00
9752;DHT22;4915;51.226;5.966;2022-08-21T12:37:00;27.20;1.00
9752;DHT22;4915;51.226;5.966;2022-08-21T12:39:31;27.10;1.00
9752;DHT22;4915;51.226;5.966;2022-08-21T12:42:06;27.10;1.00
9752;DHT22;4915;51.226;5.966;2022-08-21T12:44:39;27.50;1.00
9752;DHT22;4915;51.226;5.966;2022-08-21T12:47:15;27.70;1.00
9752;DHT22;4915;51.226;5.966;2022-08-21T12:49:53;27.80;1.00
9752;DHT22;4915;51.226;5.966;2022-08-21T12:52:24;28.20;1.00
9752;DHT22;4915;51.226;5.966;2022-08-21T12:54:51;29.00;1.00
9752;DHT22;4915;51.226;5.966;2022-08-21T12:57:22;28.90;1.00
9752;DHT22;4915;51.226;5.966;2022-08-21T12:59:55;28.50;1.00
9752;DHT22;4915;51.226;5.966;2022-08-21T13:02:25;27.60;1.00
9752;DHT22;4915;51.226;5.966;2022-08-21T13:04:53;27.60;1.00
9752;DHT22;4915;51.226;5.966;2022-08-21T13:07:26;26.80;1.00
9752;DHT22;4915;51.226;5.966;2022-08-21T13:09:57;26.90;1.00
9752;DHT22;4915;51.226;5.966;2022-08-21T13:12:27;26.50;1.00
9752;DHT22;4915;51.226;5.966;2022-08-21T13:14:57;27.00;1.00
9752;DHT22;4915;51.226;5.966;2022-08-21T13:17:26;27.00;1.00
9752;DHT22;4915;51.226;5.966;2022-08-21T13:19:55;27.50;1.00
9752;DHT22;4915;51.226;5.966;2022-08-21T13:22:24;27.50;1.00
9752;DHT22;4915;51.226;5.966;2022-08-21T13:24:51;27.60;1.00
9752;DHT22;4915;51.226;5.966;2022-08-21T13:27:22;27.30;1.00
9752;DHT22;4915;51.226;5.966;2022-08-21T13:30:09;27.20;1.00
9752;DHT22;4915;51.226;5.966;2022-08-21T13:32:41;26.70;1.00
9752;DHT22;4915;51.226;5.966;2022-08-21T13:35:15;26.90;1.00
9752;DHT22;4915;51.226;5.966;2022-08-21T13:37:45;27.20;1.00
9752;DHT22;4915;51.226;5.966;2022-08-21T13:40:18;27.00;1.00
9752;DHT22;4915;51.226;5.966;2022-08-21T13:42:47;27.30;1.00
9752;DHT22;4915;51.226;5.966;2022-08-21T13:45:21;27.10;1.00
9752;DHT22;4915;51.226;5.966;2022-08-21T13:47:48;26.90;1.00
9752;DHT22;4915;51.226;5.966;2022-08-21T13:50:18;26.80;1.00
9752;DHT22;4915;51.226;5.966;2022-08-21T13:52:54;26.60;1.00
9752;DHT22;4915;51.226;5.966;2022-08-21T13:55:22;26.30;1.00
9752;DHT22;4915;51.226;5.966;2022-08-21T13:57:58;26.20;1.00
9752;DHT22;4915;51.226;5.966;2022-08-21T14:00:28;26.20;1.00
9752;DHT22;4915;51.226;5.966;2022-08-21T14:03:02;26.30;1.00
9752;DHT22;4915;51.226;5.966;2022-08-21T14:05:33;26.20;1.00
9752;DHT22;4915;51.226;5.966;2022-08-21T14:08:05;26.00;1.00
9752;DHT22;4915;51.226;5.966;2022-08-21T14:10:36;26.10;1.00
9752;DHT22;4915;51.226;5.966;2022-08-21T14:13:07;26.20;1.00
9752;DHT22;4915;51.226;5.966;2022-08-21T14:15:36;26.20;1.00
9752;DHT22;4915;51.226;5.966;2022-08-21T14:18:09;26.30;1.00
9752;DHT22;4915;51.226;5.966;2022-08-21T14:20:39;26.30;1.00
9752;DHT22;4915;51.226;5.966;2022-08-21T14:23:07;26.00;1.00
9752;DHT22;4915;51.226;5.966;2022-08-21T14:25:39;26.20;1.00
9752;DHT22;4915;51.226;5.966;2022-08-21T14:28:15;26.70;1.00
9752;DHT22;4915;51.226;5.966;2022-08-21T14:30:47;26.20;1.00
9752;DHT22;4915;51.226;5.966;2022-08-21T14:33:22;26.70;1.00
9752;DHT22;4915;51.226;5.966;2022-08-21T14:35:50;26.50;1.00
9752;DHT22;4915;51.226;5.966;2022-08-21T14:38:19;26.10;1.00
9752;DHT22;4915;51.226;5.966;2022-08-21T14:40:49;25.70;1.00
9752;DHT22;4915;51.226;5.966;2022-08-21T14:43:17;26.00;1.00
9752;DHT22;4915;51.226;5.966;2022-08-21T14:45:46;26.00;1.00
9752;DHT22;4915;51.226;5.966;2022-08-21T14:48:14;26.30;1.00
9752;DHT22;4915;51.226;5.966;2022-08-21T14:50:41;26.20;1.00
9752;DHT22;4915;51.226;5.966;2022-08-21T14:53:08;26.00;1.00
9752;DHT22;4915;51.226;5.966;2022-08-21T14:55:37;26.20;1.00
9752;DHT22;4915;51.226;5.966;2022-08-21T14:58:19;26.20;1.00
9752;DHT22;4915;51.226;5.966;2022-08-21T15:00:49;26.20;1.00
9752;DHT22;4915;51.226;5.966;2022-08-21T15:03:16;26.10;1.00
9752;DHT22;4915;51.226;5.966;2022-08-21T15:05:43;26.20;1.00
9752;DHT22;4915;51.226;5.966;2022-08-21T15:08:10;26.30;1.00
9752;DHT22;4915;51.226;5.966;2022-08-21T15:10:37;26.50;1.00
9752;DHT22;4915;51.226;5.966;2022-08-21T15:13:05;26.80;1.00
9752;DHT22;4915;51.226;5.966;2022-08-21T15:15:40;26.50;1.00
9752;DHT22;4915;51.226;5.966;2022-08-21T15:18:09;26.60;1.00
9752;DHT22;4915;51.226;5.966;2022-08-21T15:20:37;26.60;1.00
9752;DHT22;4915;51.226;5.966;2022-08-21T15:23:06;26.30;1.00
9752;DHT22;4915;51.226;5.966;2022-08-21T15:25:33;25.90;1.00
9752;DHT22;4915;51.226;5.966;2022-08-21T15:28:01;26.10;1.00
9752;DHT22;4915;51.226;5.966;2022-08-21T15:30:30;26.10;1.00
9752;DHT22;4915;51.226;5.966;2022-08-21T15:32:57;25.80;1.00
9752;DHT22;4915;51.226;5.966;2022-08-21T15:35:26;25.90;1.00
9752;DHT22;4915;51.226;5.966;2022-08-21T15:37:53;25.50;1.00
9752;DHT22;4915;51.226;5.966;2022-08-21T15:40:20;25.50;1.00
9752;DHT22;4915;51.226;5.966;2022-08-21T15:42:47;25.30;1.00
9752;DHT22;4915;51.226;5.966;2022-08-21T15:45:19;25.20;1.00
9752;DHT22;4915;51.226;5.966;2022-08-21T15:47:49;25.10;1.00
9752;DHT22;4915;51.226;5.966;2022-08-21T15:50:17;25.30;1.00
9752;DHT22;4915;51.226;5.966;2022-08-21T15:52:45;25.50;1.00
9752;DHT22;4915;51.226;5.966;2022-08-21T15:55:12;25.40;1.00
9752;DHT22;4915;51.226;5.966;2022-08-21T15:57:43;25.40;1.00
9752;DHT22;4915;51.226;5.966;2022-08-21T16:00:13;25.70;1.00
9752;DHT22;4915;51.226;5.966;2022-08-21T16:02:44;26.00;1.00
9752;DHT22;4915;51.226;5.966;2022-08-21T16:05:12;26.20;1.00
9752;DHT22;4915;51.226;5.966;2022-08-21T16:07:42;26.20;1.00
9752;DHT22;4915;51.226;5.966;2022-08-21T16:10:12;26.20;1.00
9752;DHT22;4915;51.226;5.966;2022-08-21T16:12:43;26.30;1.00
9752;DHT22;4915;51.226;5.966;2022-08-21T16:15:13;25.90;1.00
9752;DHT22;4915;51.226;5.966;2022-08-21T16:17:44;25.70;1.00
9752;DHT22;4915;51.226;5.966;2022-08-21T16:20:16;25.70;1.00
9752;DHT22;4915;51.226;5.966;2022-08-21T16:22:44;25.50;1.00
9752;DHT22;4915;51.226;5.966;2022-08-21T16:25:14;25.30;1.00
9752;DHT22;4915;51.226;5.966;2022-08-21T16:27:42;25.10;1.00